sensor_id;sensor_type;location;lat;lon;timestamp;P1;durP1;ratioP1;P2;durP2;ratioP2
3343;SDS011;1685;53.104;8.228;2023-06-26T00:00:03;10.47;;;9.57;;
3343;SDS011;1685;53.104;8.228;2023-06-26T00:02:31;11.70;;;10.60;;
3343;SDS011;1685;53.104;8.228;2023-06-26T00:04:58;10.87;;;9.77;;
3343;SDS011;1685;53.104;8.228;2023-06-26T00:07:27;10.80;;;9.63;;
3343;SDS011;1685;53.104;8.228;2023-06-26T00:09:54;11.13;;;10.03;;
3343;SDS011;1685;53.104;8.228;2023-06-26T00:12:21;15.63;;;9.73;;
3343;SDS011;1685;53.104;8.228;2023-06-26T00:14:50;10.77;;;9.67;;
3343;SDS011;1685;53.104;8.228;2023-06-26T00:17:16;11.53;;;10.37;;
3343;SDS011;1685;53.104;8.228;2023-06-26T00:19:43;12.10;;;10.80;;
3343;SDS011;1685;53.104;8.228;2023-06-26T00:22:11;11.13;;;10.03;;
3343;SDS011;1685;53.104;8.228;2023-06-26T00:24:38;10.80;;;9.80;;
3343;SDS011;1685;53.104;8.228;2023-06-26T00:27:05;11.80;;;10.60;;
3343;SDS011;1685;53.104;8.228;2023-06-26T00:29:32;11.07;;;10.07;;
3343;SDS011;1685;53.104;8.228;2023-06-26T00:32:01;10.30;;;9.40;;
3343;SDS011;1685;53.104;8.228;2023-06-26T00:34:28;10.83;;;9.73;;
3343;SDS011;1685;53.104;8.228;2023-06-26T00:36:55;11.10;;;10.10;;
3343;SDS011;1685;53.104;8.228;2023-06-26T00:39:22;13.63;;;10.40;;
3343;SDS011;1685;53.104;8.228;2023-06-26T00:41:50;13.37;;;11.00;;
3343;SDS011;1685;53.104;8.228;2023-06-26T00:44:18;12.67;;;11.37;;
3343;SDS011;1685;53.104;8.228;2023-06-26T00:46:45;10.67;;;9.67;;
3343;SDS011;1685;53.104;8.228;2023-06-26T00:49:14;10.63;;;9.63;;
3343;SDS011;1685;53.104;8.228;2023-06-26T00:51:41;12.50;;;11.30;;
3343;SDS011;1685;53.104;8.228;2023-06-26T00:54:08;13.40;;;11.73;;
3343;SDS011;1685;53.104;8.228;2023-06-26T00:56:35;11.70;;;10.40;;
3343;SDS011;1685;53.104;8.228;2023-06-26T00:59:03;11.30;;;9.80;;
3343;SDS011;1685;53.104;8.228;2023-06-26T01:01:30;11.43;;;10.40;;
3343;SDS011;1685;53.104;8.228;2023-06-26T01:03:57;11.77;;;10.57;;
3343;SDS011;1685;53.104;8.228;2023-06-26T01:06:26;12.37;;;10.90;;
3343;SDS011;1685;53.104;8.228;2023-06-26T01:08:57;12.17;;;10.90;;
3343;SDS011;1685;53.104;8.228;2023-06-26T01:11:25;12.80;;;11.50;;
3343;SDS011;1685;53.104;8.228;2023-06-26T01:13:52;11.60;;;10.50;;
3343;SDS011;1685;53.104;8.228;2023-06-26T01:16:20;10.53;;;9.63;;
3343;SDS011;1685;53.104;8.228;2023-06-26T01:18:48;12.40;;;11.10;;
3343;SDS011;1685;53.104;8.228;2023-06-26T01:21:15;11.53;;;10.43;;
3343;SDS011;1685;53.104;8.228;2023-06-26T01:23:49;18.23;;;11.13;;
3343;SDS011;1685;53.104;8.228;2023-06-26T01:26:27;12.50;;;10.83;;
3343;SDS011;1685;53.104;8.228;2023-06-26T01:28:56;14.10;;;10.83;;
3343;SDS011;1685;53.104;8.228;2023-06-26T01:31:24;13.07;;;11.77;;
3343;SDS011;1685;53.104;8.228;2023-06-26T01:33:52;12.27;;;11.17;;
3343;SDS011;1685;53.104;8.228;2023-06-26T01:36:19;13.20;;;12.00;;
3343;SDS011;1685;53.104;8.228;2023-06-26T01:38:46;13.53;;;12.20;;
3343;SDS011;1685;53.104;8.228;2023-06-26T01:41:13;12.30;;;10.80;;
3343;SDS011;1685;53.104;8.228;2023-06-26T01:43:44;12.23;;;11.13;;
3343;SDS011;1685;53.104;8.228;2023-06-26T01:46:34;13.20;;;11.90;;
3343;SDS011;1685;53.104;8.228;2023-06-26T01:49:12;13.63;;;12.33;;
3343;SDS011;1685;53.104;8.228;2023-06-26T01:51:45;14.23;;;12.83;;
3343;SDS011;1685;53.104;8.228;2023-06-26T01:54:16;12.67;;;11.30;;
3343;SDS011;1685;53.104;8.228;2023-06-26T01:56:45;12.33;;;10.97;;
3343;SDS011;1685;53.104;8.228;2023-06-26T01:59:16;13.23;;;11.93;;
3343;SDS011;1685;53.104;8.228;2023-06-26T02:01:45;13.47;;;11.57;;
3343;SDS011;1685;53.104;8.228;2023-06-26T02:04:13;12.70;;;11.40;;
3343;SDS011;1685;53.104;8.228;2023-06-26T02:06:40;13.30;;;11.90;;
3343;SDS011;1685;53.104;8.228;2023-06-26T02:09:07;13.00;;;11.80;;
3343;SDS011;1685;53.104;8.228;2023-06-26T02:11:34;15.07;;;12.43;;
3343;SDS011;1685;53.104;8.228;2023-06-26T02:14:01;12.83;;;11.63;;
3343;SDS011;1685;53.104;8.228;2023-06-26T02:16:30;15.63;;;12.30;;
3343;SDS011;1685;53.104;8.228;2023-06-26T02:18:56;12.30;;;11.07;;
3343;SDS011;1685;53.104;8.228;2023-06-26T02:21:23;12.63;;;11.33;;
3343;SDS011;1685;53.104;8.228;2023-06-26T02:23:51;12.73;;;11.43;;
3343;SDS011;1685;53.104;8.228;2023-06-26T02:26:18;12.37;;;11.17;;
3343;SDS011;1685;53.104;8.228;2023-06-26T02:28:45;13.57;;;12.20;;
3343;SDS011;1685;53.104;8.228;2023-06-26T02:31:13;13.80;;;12.43;;
3343;SDS011;1685;53.104;8.228;2023-06-26T02:33:42;11.43;;;10.33;;
3343;SDS011;1685;53.104;8.228;2023-06-26T02:36:10;13.40;;;12.10;;
3343;SDS011;1685;53.104;8.228;2023-06-26T02:38:37;12.90;;;10.73;;
3343;SDS011;1685;53.104;8.228;2023-06-26T02:41:04;12.03;;;10.90;;
3343;SDS011;1685;53.104;8.228;2023-06-26T02:43:31;16.40;;;12.63;;
3343;SDS011;1685;53.104;8.228;2023-06-26T02:45:58;13.27;;;11.97;;
3343;SDS011;1685;53.104;8.228;2023-06-26T02:48:25;14.83;;;13.10;;
3343;SDS011;1685;53.104;8.228;2023-06-26T02:50:54;15.20;;;12.10;;
3343;SDS011;1685;53.104;8.228;2023-06-26T02:53:20;11.97;;;10.87;;
3343;SDS011;1685;53.104;8.228;2023-06-26T02:55:47;12.83;;;11.60;;
3343;SDS011;1685;53.104;8.228;2023-06-26T02:58:14;13.80;;;12.40;;
3343;SDS011;1685;53.104;8.228;2023-06-26T03:00:41;13.70;;;11.90;;
3343;SDS011;1685;53.104;8.228;2023-06-26T03:03:09;12.10;;;10.90;;
3343;SDS011;1685;53.104;8.228;2023-06-26T03:05:37;12.13;;;10.83;;
3343;SDS011;1685;53.104;8.228;2023-06-26T03:08:06;12.43;;;11.13;;
3343;SDS011;1685;53.104;8.228;2023-06-26T03:10:33;12.83;;;11.13;;
3343;SDS011;1685;53.104;8.228;2023-06-26T03:13:00;12.93;;;11.50;;
3343;SDS011;1685;53.104;8.228;2023-06-26T03:15:27;11.83;;;10.73;;
3343;SDS011;1685;53.104;8.228;2023-06-26T03:17:54;13.63;;;12.37;;
3343;SDS011;1685;53.104;8.228;2023-06-26T03:20:21;12.80;;;11.50;;
3343;SDS011;1685;53.104;8.228;2023-06-26T03:22:48;12.00;;;10.80;;
3343;SDS011;1685;53.104;8.228;2023-06-26T03:25:16;13.07;;;11.80;;
3343;SDS011;1685;53.104;8.228;2023-06-26T03:27:43;19.00;;;12.63;;
3343;SDS011;1685;53.104;8.228;2023-06-26T03:30:11;14.90;;;12.60;;
3343;SDS011;1685;53.104;8.228;2023-06-26T03:32:38;13.20;;;11.90;;
3343;SDS011;1685;53.104;8.228;2023-06-26T03:35:05;14.23;;;11.90;;
3343;SDS011;1685;53.104;8.228;2023-06-26T03:37:32;13.43;;;11.80;;
3343;SDS011;1685;53.104;8.228;2023-06-26T03:39:59;12.60;;;11.30;;
3343;SDS011;1685;53.104;8.228;2023-06-26T03:42:29;14.30;;;11.87;;
3343;SDS011;1685;53.104;8.228;2023-06-26T03:44:56;11.13;;;10.13;;
3343;SDS011;1685;53.104;8.228;2023-06-26T03:47:23;13.20;;;11.67;;
3343;SDS011;1685;53.104;8.228;2023-06-26T03:49:50;12.17;;;10.83;;
3343;SDS011;1685;53.104;8.228;2023-06-26T03:52:17;12.07;;;10.87;;
3343;SDS011;1685;53.104;8.228;2023-06-26T03:54:44;12.73;;;11.40;;
3343;SDS011;1685;53.104;8.228;2023-06-26T03:57:11;11.63;;;10.50;;
3343;SDS011;1685;53.104;8.228;2023-06-26T03:59:40;12.87;;;11.47;;
3343;SDS011;1685;53.104;8.228;2023-06-26T04:02:07;13.70;;;11.30;;
3343;SDS011;1685;53.104;8.228;2023-06-26T04:04:34;12.60;;;10.13;;
3343;SDS011;1685;53.104;8.228;2023-06-26T04:07:01;12.57;;;11.27;;
3343;SDS011;1685;53.104;8.228;2023-06-26T04:09:28;13.07;;;11.67;;
3343;SDS011;1685;53.104;8.228;2023-06-26T04:11:55;14.33;;;10.80;;
3343;SDS011;1685;53.104;8.228;2023-06-26T04:14:22;14.60;;;12.37;;
3343;SDS011;1685;53.104;8.228;2023-06-26T04:16:50;12.83;;;11.30;;
3343;SDS011;1685;53.104;8.228;2023-06-26T04:19:17;12.20;;;9.73;;
3343;SDS011;1685;53.104;8.228;2023-06-26T04:21:44;11.97;;;10.63;;
3343;SDS011;1685;53.104;8.228;2023-06-26T04:24:11;12.33;;;11.13;;
3343;SDS011;1685;53.104;8.228;2023-06-26T04:26:38;11.77;;;10.37;;
3343;SDS011;1685;53.104;8.228;2023-06-26T04:29:07;13.07;;;11.67;;
3343;SDS011;1685;53.104;8.228;2023-06-26T04:31:34;22.47;;;10.97;;
3343;SDS011;1685;53.104;8.228;2023-06-26T04:34:02;12.00;;;10.80;;
3343;SDS011;1685;53.104;8.228;2023-06-26T04:36:29;11.03;;;9.90;;
3343;SDS011;1685;53.104;8.228;2023-06-26T04:38:58;16.23;;;10.20;;
3343;SDS011;1685;53.104;8.228;2023-06-26T04:41:25;11.67;;;10.43;;
3343;SDS011;1685;53.104;8.228;2023-06-26T04:43:52;14.20;;;10.37;;
3343;SDS011;1685;53.104;8.228;2023-06-26T04:46:19;11.67;;;10.57;;
3343;SDS011;1685;53.104;8.228;2023-06-26T04:48:46;12.47;;;11.17;;
3343;SDS011;1685;53.104;8.228;2023-06-26T04:51:14;13.03;;;10.43;;
3343;SDS011;1685;53.104;8.228;2023-06-26T04:53:45;10.83;;;9.73;;
3343;SDS011;1685;53.104;8.228;2023-06-26T04:56:12;15.37;;;11.13;;
3343;SDS011;1685;53.104;8.228;2023-06-26T04:58:39;11.63;;;10.10;;
3343;SDS011;1685;53.104;8.228;2023-06-26T05:01:06;12.80;;;10.87;;
3343;SDS011;1685;53.104;8.228;2023-06-26T05:03:34;14.67;;;11.20;;
3343;SDS011;1685;53.104;8.228;2023-06-26T05:06:01;17.50;;;11.07;;
3343;SDS011;1685;53.104;8.228;2023-06-26T05:08:30;14.23;;;11.57;;
3343;SDS011;1685;53.104;8.228;2023-06-26T05:10:56;13.43;;;11.50;;
3343;SDS011;1685;53.104;8.228;2023-06-26T05:13:24;16.33;;;11.40;;
3343;SDS011;1685;53.104;8.228;2023-06-26T05:15:51;12.43;;;11.03;;
3343;SDS011;1685;53.104;8.228;2023-06-26T05:18:18;11.83;;;10.73;;
3343;SDS011;1685;53.104;8.228;2023-06-26T05:20:45;31.30;;;11.50;;
3343;SDS011;1685;53.104;8.228;2023-06-26T05:23:13;10.97;;;9.87;;
3343;SDS011;1685;53.104;8.228;2023-06-26T05:25:42;14.17;;;10.90;;
3343;SDS011;1685;53.104;8.228;2023-06-26T05:28:09;15.30;;;11.50;;
3343;SDS011;1685;53.104;8.228;2023-06-26T05:30:37;12.73;;;11.43;;
3343;SDS011;1685;53.104;8.228;2023-06-26T05:33:04;12.20;;;10.80;;
3343;SDS011;1685;53.104;8.228;2023-06-26T05:35:33;14.17;;;11.40;;
3343;SDS011;1685;53.104;8.228;2023-06-26T05:38:02;15.10;;;10.93;;
3343;SDS011;1685;53.104;8.228;2023-06-26T05:40:29;12.03;;;10.77;;
3343;SDS011;1685;53.104;8.228;2023-06-26T05:42:58;13.43;;;10.60;;
3343;SDS011;1685;53.104;8.228;2023-06-26T05:45:25;12.73;;;10.03;;
3343;SDS011;1685;53.104;8.228;2023-06-26T05:47:52;14.27;;;9.80;;
3343;SDS011;1685;53.104;8.228;2023-06-26T05:50:19;14.67;;;10.17;;
3343;SDS011;1685;53.104;8.228;2023-06-26T05:52:47;12.37;;;11.13;;
3343;SDS011;1685;53.104;8.228;2023-06-26T05:55:14;12.73;;;11.00;;
3343;SDS011;1685;53.104;8.228;2023-06-26T05:57:41;12.03;;;9.97;;
3343;SDS011;1685;53.104;8.228;2023-06-26T06:00:10;13.57;;;10.17;;
3343;SDS011;1685;53.104;8.228;2023-06-26T06:02:38;15.23;;;11.40;;
3343;SDS011;1685;53.104;8.228;2023-06-26T06:05:06;12.93;;;11.33;;
3343;SDS011;1685;53.104;8.228;2023-06-26T06:07:33;12.30;;;11.00;;
3343;SDS011;1685;53.104;8.228;2023-06-26T06:10:01;13.90;;;11.03;;
3343;SDS011;1685;53.104;8.228;2023-06-26T06:12:29;14.20;;;10.23;;
3343;SDS011;1685;53.104;8.228;2023-06-26T06:14:56;13.20;;;11.60;;
3343;SDS011;1685;53.104;8.228;2023-06-26T06:17:24;12.80;;;11.40;;
3343;SDS011;1685;53.104;8.228;2023-06-26T06:19:51;16.70;;;11.60;;
3343;SDS011;1685;53.104;8.228;2023-06-26T06:22:18;15.33;;;12.27;;
3343;SDS011;1685;53.104;8.228;2023-06-26T06:24:46;17.70;;;12.10;;
3343;SDS011;1685;53.104;8.228;2023-06-26T06:27:13;13.10;;;11.83;;
3343;SDS011;1685;53.104;8.228;2023-06-26T06:29:40;16.57;;;13.00;;
3343;SDS011;1685;53.104;8.228;2023-06-26T06:32:07;13.00;;;11.10;;
3343;SDS011;1685;53.104;8.228;2023-06-26T06:34:36;13.73;;;11.80;;
3343;SDS011;1685;53.104;8.228;2023-06-26T06:37:03;18.43;;;11.43;;
3343;SDS011;1685;53.104;8.228;2023-06-26T06:39:30;17.33;;;11.00;;
3343;SDS011;1685;53.104;8.228;2023-06-26T06:41:57;13.30;;;11.90;;
3343;SDS011;1685;53.104;8.228;2023-06-26T06:44:24;15.23;;;12.07;;
3343;SDS011;1685;53.104;8.228;2023-06-26T06:46:51;16.57;;;11.30;;
3343;SDS011;1685;53.104;8.228;2023-06-26T06:49:18;18.63;;;12.00;;
3343;SDS011;1685;53.104;8.228;2023-06-26T06:51:46;12.97;;;11.33;;
3343;SDS011;1685;53.104;8.228;2023-06-26T06:54:14;14.90;;;10.90;;
3343;SDS011;1685;53.104;8.228;2023-06-26T06:56:41;12.43;;;11.23;;
3343;SDS011;1685;53.104;8.228;2023-06-26T06:59:09;17.67;;;10.03;;
3343;SDS011;1685;53.104;8.228;2023-06-26T07:01:36;14.93;;;10.33;;
3343;SDS011;1685;53.104;8.228;2023-06-26T07:04:03;17.17;;;10.13;;
3343;SDS011;1685;53.104;8.228;2023-06-26T07:06:30;14.80;;;10.70;;
3343;SDS011;1685;53.104;8.228;2023-06-26T07:08:59;17.20;;;12.13;;
3343;SDS011;1685;53.104;8.228;2023-06-26T07:11:26;15.37;;;12.00;;
3343;SDS011;1685;53.104;8.228;2023-06-26T07:13:53;13.50;;;11.80;;
3343;SDS011;1685;53.104;8.228;2023-06-26T07:16:20;15.87;;;12.53;;
3343;SDS011;1685;53.104;8.228;2023-06-26T07:18:47;12.93;;;11.60;;
3343;SDS011;1685;53.104;8.228;2023-06-26T07:21:15;12.60;;;11.30;;
3343;SDS011;1685;53.104;8.228;2023-06-26T07:23:42;10.10;;;9.10;;
3343;SDS011;1685;53.104;8.228;2023-06-26T07:26:10;12.40;;;10.17;;
3343;SDS011;1685;53.104;8.228;2023-06-26T07:28:40;14.17;;;11.17;;
3343;SDS011;1685;53.104;8.228;2023-06-26T07:31:07;13.00;;;9.87;;
3343;SDS011;1685;53.104;8.228;2023-06-26T07:33:34;15.30;;;10.40;;
3343;SDS011;1685;53.104;8.228;2023-06-26T07:36:01;15.33;;;10.50;;
3343;SDS011;1685;53.104;8.228;2023-06-26T07:38:28;17.87;;;11.43;;
3343;SDS011;1685;53.104;8.228;2023-06-26T07:40:55;14.53;;;10.50;;
3343;SDS011;1685;53.104;8.228;2023-06-26T07:43:24;20.87;;;11.10;;
3343;SDS011;1685;53.104;8.228;2023-06-26T07:45:50;25.17;;;13.30;;
3343;SDS011;1685;53.104;8.228;2023-06-26T07:48:18;25.37;;;13.30;;
3343;SDS011;1685;53.104;8.228;2023-06-26T07:50:45;29.30;;;15.40;;
3343;SDS011;1685;53.104;8.228;2023-06-26T07:53:12;24.53;;;16.00;;
3343;SDS011;1685;53.104;8.228;2023-06-26T07:55:39;20.43;;;14.47;;
3343;SDS011;1685;53.104;8.228;2023-06-26T07:58:06;21.07;;;15.50;;
3343;SDS011;1685;53.104;8.228;2023-06-26T08:00:35;23.00;;;16.20;;
3343;SDS011;1685;53.104;8.228;2023-06-26T08:03:02;22.20;;;16.60;;
3343;SDS011;1685;53.104;8.228;2023-06-26T08:05:29;27.17;;;14.90;;
3343;SDS011;1685;53.104;8.228;2023-06-26T08:07:56;19.70;;;16.50;;
3343;SDS011;1685;53.104;8.228;2023-06-26T08:10:23;21.10;;;16.10;;
3343;SDS011;1685;53.104;8.228;2023-06-26T08:12:50;23.20;;;16.27;;
3343;SDS011;1685;53.104;8.228;2023-06-26T08:15:17;19.43;;;16.87;;
3343;SDS011;1685;53.104;8.228;2023-06-26T08:17:46;26.37;;;18.40;;
3343;SDS011;1685;53.104;8.228;2023-06-26T08:20:15;22.10;;;18.43;;
3343;SDS011;1685;53.104;8.228;2023-06-26T08:22:44;31.27;;;20.83;;
3343;SDS011;1685;53.104;8.228;2023-06-26T08:25:13;32.80;;;20.07;;
3343;SDS011;1685;53.104;8.228;2023-06-26T08:27:40;30.00;;;20.47;;
3343;SDS011;1685;53.104;8.228;2023-06-26T08:30:07;29.57;;;19.03;;
3343;SDS011;1685;53.104;8.228;2023-06-26T08:32:34;25.87;;;22.07;;
3343;SDS011;1685;53.104;8.228;2023-06-26T08:35:03;26.90;;;19.50;;
3343;SDS011;1685;53.104;8.228;2023-06-26T08:37:30;28.03;;;18.40;;
3343;SDS011;1685;53.104;8.228;2023-06-26T08:39:57;19.50;;;15.67;;
3343;SDS011;1685;53.104;8.228;2023-06-26T08:42:25;22.77;;;13.87;;
3343;SDS011;1685;53.104;8.228;2023-06-26T08:44:52;20.60;;;12.10;;
3343;SDS011;1685;53.104;8.228;2023-06-26T08:47:19;18.27;;;9.07;;
3343;SDS011;1685;53.104;8.228;2023-06-26T08:49:46;11.57;;;7.93;;
3343;SDS011;1685;53.104;8.228;2023-06-26T08:52:22;11.53;;;7.50;;
3343;SDS011;1685;53.104;8.228;2023-06-26T08:54:52;11.17;;;6.87;;
3343;SDS011;1685;53.104;8.228;2023-06-26T08:57:22;16.20;;;7.97;;
3343;SDS011;1685;53.104;8.228;2023-06-26T08:59:49;10.70;;;5.13;;
3343;SDS011;1685;53.104;8.228;2023-06-26T09:02:17;7.13;;;5.20;;
3343;SDS011;1685;53.104;8.228;2023-06-26T09:04:46;15.37;;;5.03;;
3343;SDS011;1685;53.104;8.228;2023-06-26T09:07:13;10.13;;;4.40;;
3343;SDS011;1685;53.104;8.228;2023-06-26T09:09:45;8.03;;;5.13;;
3343;SDS011;1685;53.104;8.228;2023-06-26T09:12:19;9.23;;;4.20;;
3343;SDS011;1685;53.104;8.228;2023-06-26T09:14:46;5.43;;;2.57;;
3343;SDS011;1685;53.104;8.228;2023-06-26T09:17:14;5.90;;;3.10;;
3343;SDS011;1685;53.104;8.228;2023-06-26T09:19:41;4.67;;;2.80;;
3343;SDS011;1685;53.104;8.228;2023-06-26T09:22:11;7.57;;;1.90;;
3343;SDS011;1685;53.104;8.228;2023-06-26T09:24:40;5.57;;;2.63;;
3343;SDS011;1685;53.104;8.228;2023-06-26T09:27:09;7.90;;;2.73;;
3343;SDS011;1685;53.104;8.228;2023-06-26T09:29:36;4.40;;;2.00;;
3343;SDS011;1685;53.104;8.228;2023-06-26T09:32:05;6.43;;;2.47;;
3343;SDS011;1685;53.104;8.228;2023-06-26T09:34:34;9.03;;;2.83;;
3343;SDS011;1685;53.104;8.228;2023-06-26T09:37:01;7.33;;;2.30;;
3343;SDS011;1685;53.104;8.228;2023-06-26T09:39:30;6.37;;;2.50;;
3343;SDS011;1685;53.104;8.228;2023-06-26T09:41:58;9.50;;;2.40;;
3343;SDS011;1685;53.104;8.228;2023-06-26T09:44:27;2.50;;;2.20;;
3343;SDS011;1685;53.104;8.228;2023-06-26T09:46:54;6.77;;;2.83;;
3343;SDS011;1685;53.104;8.228;2023-06-26T09:49:23;6.63;;;2.53;;
3343;SDS011;1685;53.104;8.228;2023-06-26T09:51:51;2.80;;;1.80;;
3343;SDS011;1685;53.104;8.228;2023-06-26T09:54:18;10.33;;;2.53;;
3343;SDS011;1685;53.104;8.228;2023-06-26T09:56:49;5.10;;;2.10;;
3343;SDS011;1685;53.104;8.228;2023-06-26T09:59:17;4.57;;;2.03;;
3343;SDS011;1685;53.104;8.228;2023-06-26T10:01:45;11.67;;;2.70;;
3343;SDS011;1685;53.104;8.228;2023-06-26T10:04:12;6.87;;;2.67;;
3343;SDS011;1685;53.104;8.228;2023-06-26T10:06:41;3.17;;;2.17;;
3343;SDS011;1685;53.104;8.228;2023-06-26T10:09:12;4.33;;;2.00;;
3343;SDS011;1685;53.104;8.228;2023-06-26T10:11:44;5.30;;;2.47;;
3343;SDS011;1685;53.104;8.228;2023-06-26T10:14:16;7.77;;;2.20;;
3343;SDS011;1685;53.104;8.228;2023-06-26T10:16:44;4.40;;;1.87;;
3343;SDS011;1685;53.104;8.228;2023-06-26T10:19:14;7.13;;;2.07;;
3343;SDS011;1685;53.104;8.228;2023-06-26T10:21:44;6.03;;;2.00;;
3343;SDS011;1685;53.104;8.228;2023-06-26T10:24:11;9.73;;;2.30;;
3343;SDS011;1685;53.104;8.228;2023-06-26T10:26:41;4.57;;;2.67;;
3343;SDS011;1685;53.104;8.228;2023-06-26T10:29:10;2.53;;;2.00;;
3343;SDS011;1685;53.104;8.228;2023-06-26T10:31:40;3.53;;;2.23;;
3343;SDS011;1685;53.104;8.228;2023-06-26T10:34:11;4.83;;;2.00;;
3343;SDS011;1685;53.104;8.228;2023-06-26T10:36:38;2.23;;;1.60;;
3343;SDS011;1685;53.104;8.228;2023-06-26T10:39:05;3.00;;;1.90;;
3343;SDS011;1685;53.104;8.228;2023-06-26T10:41:36;1.70;;;1.57;;
3343;SDS011;1685;53.104;8.228;2023-06-26T10:44:06;4.47;;;1.77;;
3343;SDS011;1685;53.104;8.228;2023-06-26T10:46:33;2.63;;;2.30;;
3343;SDS011;1685;53.104;8.228;2023-06-26T10:49:02;3.27;;;1.67;;
3343;SDS011;1685;53.104;8.228;2023-06-26T10:51:29;2.17;;;1.70;;
3343;SDS011;1685;53.104;8.228;2023-06-26T10:53:56;4.43;;;1.80;;
3343;SDS011;1685;53.104;8.228;2023-06-26T10:59:15;6.57;;;1.90;;
3343;SDS011;1685;53.104;8.228;2023-06-26T11:01:46;3.80;;;1.93;;
3343;SDS011;1685;53.104;8.228;2023-06-26T11:04:35;4.23;;;2.03;;
3343;SDS011;1685;53.104;8.228;2023-06-26T11:07:15;2.03;;;1.57;;
3343;SDS011;1685;53.104;8.228;2023-06-26T11:12:34;4.57;;;2.00;;
3343;SDS011;1685;53.104;8.228;2023-06-26T11:15:07;3.73;;;2.30;;
3343;SDS011;1685;53.104;8.228;2023-06-26T11:17:35;4.60;;;2.20;;
3343;SDS011;1685;53.104;8.228;2023-06-26T11:20:04;2.87;;;2.13;;
3343;SDS011;1685;53.104;8.228;2023-06-26T11:22:33;6.47;;;2.73;;
3343;SDS011;1685;53.104;8.228;2023-06-26T11:25:01;11.23;;;2.10;;
3343;SDS011;1685;53.104;8.228;2023-06-26T11:27:30;5.80;;;1.90;;
3343;SDS011;1685;53.104;8.228;2023-06-26T11:29:57;3.30;;;2.00;;
3343;SDS011;1685;53.104;8.228;2023-06-26T11:32:26;2.50;;;1.97;;
3343;SDS011;1685;53.104;8.228;2023-06-26T11:34:53;5.77;;;2.13;;
3343;SDS011;1685;53.104;8.228;2023-06-26T11:37:22;4.73;;;2.30;;
3343;SDS011;1685;53.104;8.228;2023-06-26T11:39:49;11.63;;;2.20;;
3343;SDS011;1685;53.104;8.228;2023-06-26T11:42:16;2.53;;;1.93;;
3343;SDS011;1685;53.104;8.228;2023-06-26T11:44:44;7.40;;;2.20;;
3343;SDS011;1685;53.104;8.228;2023-06-26T11:47:14;3.10;;;1.83;;
3343;SDS011;1685;53.104;8.228;2023-06-26T11:49:42;3.47;;;2.13;;
3343;SDS011;1685;53.104;8.228;2023-06-26T11:52:09;3.20;;;1.90;;
3343;SDS011;1685;53.104;8.228;2023-06-26T11:54:39;5.93;;;2.07;;
3343;SDS011;1685;53.104;8.228;2023-06-26T11:57:07;5.07;;;2.37;;
3343;SDS011;1685;53.104;8.228;2023-06-26T11:59:34;8.83;;;2.17;;
3343;SDS011;1685;53.104;8.228;2023-06-26T12:02:06;3.20;;;2.33;;
3343;SDS011;1685;53.104;8.228;2023-06-26T12:04:34;5.40;;;2.37;;
3343;SDS011;1685;53.104;8.228;2023-06-26T12:07:04;3.57;;;2.30;;
3343;SDS011;1685;53.104;8.228;2023-06-26T12:09:33;7.53;;;2.53;;
3343;SDS011;1685;53.104;8.228;2023-06-26T12:12:02;7.40;;;2.23;;
3343;SDS011;1685;53.104;8.228;2023-06-26T12:14:30;3.50;;;2.80;;
3343;SDS011;1685;53.104;8.228;2023-06-26T12:17:03;9.60;;;2.37;;
3343;SDS011;1685;53.104;8.228;2023-06-26T12:19:31;4.10;;;1.80;;
3343;SDS011;1685;53.104;8.228;2023-06-26T12:21:58;2.10;;;1.83;;
3343;SDS011;1685;53.104;8.228;2023-06-26T12:24:25;2.80;;;1.83;;
3343;SDS011;1685;53.104;8.228;2023-06-26T12:26:53;2.87;;;2.60;;
3343;SDS011;1685;53.104;8.228;2023-06-26T12:29:29;3.73;;;2.30;;
3343;SDS011;1685;53.104;8.228;2023-06-26T12:31:58;5.63;;;2.23;;
3343;SDS011;1685;53.104;8.228;2023-06-26T12:34:26;9.27;;;2.70;;
3343;SDS011;1685;53.104;8.228;2023-06-26T12:36:58;4.03;;;2.20;;
3343;SDS011;1685;53.104;8.228;2023-06-26T12:39:26;4.53;;;2.00;;
3343;SDS011;1685;53.104;8.228;2023-06-26T12:41:54;3.37;;;2.30;;
3343;SDS011;1685;53.104;8.228;2023-06-26T12:44:26;3.77;;;2.13;;
3343;SDS011;1685;53.104;8.228;2023-06-26T12:46:54;4.70;;;1.97;;
3343;SDS011;1685;53.104;8.228;2023-06-26T12:49:30;3.70;;;2.50;;
3343;SDS011;1685;53.104;8.228;2023-06-26T12:51:58;4.90;;;2.50;;
3343;SDS011;1685;53.104;8.228;2023-06-26T12:54:25;2.60;;;2.30;;
3343;SDS011;1685;53.104;8.228;2023-06-26T12:56:53;4.60;;;2.00;;
3343;SDS011;1685;53.104;8.228;2023-06-26T12:59:20;3.30;;;2.20;;
3343;SDS011;1685;53.104;8.228;2023-06-26T13:01:48;2.67;;;2.10;;
3343;SDS011;1685;53.104;8.228;2023-06-26T13:04:15;4.33;;;2.37;;
3343;SDS011;1685;53.104;8.228;2023-06-26T13:06:42;4.03;;;2.50;;
3343;SDS011;1685;53.104;8.228;2023-06-26T13:09:09;2.67;;;1.80;;
3343;SDS011;1685;53.104;8.228;2023-06-26T13:11:37;7.30;;;2.33;;
3343;SDS011;1685;53.104;8.228;2023-06-26T13:14:04;4.70;;;2.40;;
3343;SDS011;1685;53.104;8.228;2023-06-26T13:16:31;5.57;;;2.63;;
3343;SDS011;1685;53.104;8.228;2023-06-26T13:18:59;8.07;;;2.80;;
3343;SDS011;1685;53.104;8.228;2023-06-26T13:21:27;10.43;;;2.53;;
3343;SDS011;1685;53.104;8.228;2023-06-26T13:23:54;4.87;;;2.50;;
3343;SDS011;1685;53.104;8.228;2023-06-26T13:26:21;3.30;;;2.50;;
3343;SDS011;1685;53.104;8.228;2023-06-26T13:28:48;2.90;;;2.30;;
3343;SDS011;1685;53.104;8.228;2023-06-26T13:31:15;4.83;;;2.47;;
3343;SDS011;1685;53.104;8.228;2023-06-26T13:33:43;4.87;;;2.40;;
3343;SDS011;1685;53.104;8.228;2023-06-26T13:36:12;4.90;;;2.30;;
3343;SDS011;1685;53.104;8.228;2023-06-26T13:38:39;9.33;;;2.40;;
3343;SDS011;1685;53.104;8.228;2023-06-26T13:41:06;2.57;;;1.97;;
3343;SDS011;1685;53.104;8.228;2023-06-26T13:43:33;7.10;;;2.43;;
3343;SDS011;1685;53.104;8.228;2023-06-26T13:46:00;8.00;;;2.90;;
3343;SDS011;1685;53.104;8.228;2023-06-26T13:48:27;4.00;;;2.50;;
3343;SDS011;1685;53.104;8.228;2023-06-26T13:50:55;3.53;;;2.57;;
3343;SDS011;1685;53.104;8.228;2023-06-26T13:53:23;4.60;;;2.43;;
3343;SDS011;1685;53.104;8.228;2023-06-26T13:55:50;2.53;;;2.17;;
3343;SDS011;1685;53.104;8.228;2023-06-26T13:58:17;3.77;;;2.40;;
3343;SDS011;1685;53.104;8.228;2023-06-26T14:00:47;2.87;;;2.57;;
3343;SDS011;1685;53.104;8.228;2023-06-26T14:03:14;9.07;;;2.97;;
3343;SDS011;1685;53.104;8.228;2023-06-26T14:05:43;5.67;;;2.33;;
3343;SDS011;1685;53.104;8.228;2023-06-26T14:08:10;4.83;;;2.63;;
3343;SDS011;1685;53.104;8.228;2023-06-26T14:10:38;5.10;;;2.50;;
3343;SDS011;1685;53.104;8.228;2023-06-26T14:13:05;6.50;;;2.10;;
3343;SDS011;1685;53.104;8.228;2023-06-26T14:15:33;7.17;;;2.40;;
3343;SDS011;1685;53.104;8.228;2023-06-26T14:18:01;5.63;;;2.20;;
3343;SDS011;1685;53.104;8.228;2023-06-26T14:20:29;6.20;;;2.43;;
3343;SDS011;1685;53.104;8.228;2023-06-26T14:22:57;4.33;;;2.80;;
3343;SDS011;1685;53.104;8.228;2023-06-26T14:25:25;2.77;;;1.93;;
3343;SDS011;1685;53.104;8.228;2023-06-26T14:27:54;11.97;;;3.40;;
3343;SDS011;1685;53.104;8.228;2023-06-26T14:30:21;2.30;;;2.10;;
3343;SDS011;1685;53.104;8.228;2023-06-26T14:32:48;7.67;;;2.30;;
3343;SDS011;1685;53.104;8.228;2023-06-26T14:35:15;6.87;;;2.10;;
3343;SDS011;1685;53.104;8.228;2023-06-26T14:37:42;3.37;;;2.10;;
3343;SDS011;1685;53.104;8.228;2023-06-26T14:40:10;5.03;;;2.33;;
3343;SDS011;1685;53.104;8.228;2023-06-26T14:42:37;4.53;;;2.47;;
3343;SDS011;1685;53.104;8.228;2023-06-26T14:45:06;10.43;;;2.60;;
3343;SDS011;1685;53.104;8.228;2023-06-26T14:47:34;8.00;;;2.20;;
3343;SDS011;1685;53.104;8.228;2023-06-26T14:50:01;8.63;;;2.13;;
3343;SDS011;1685;53.104;8.228;2023-06-26T14:52:28;8.30;;;3.07;;
3343;SDS011;1685;53.104;8.228;2023-06-26T14:54:55;10.47;;;1.87;;
3343;SDS011;1685;53.104;8.228;2023-06-26T14:57:22;4.80;;;2.23;;
3343;SDS011;1685;53.104;8.228;2023-06-26T14:59:49;3.37;;;1.87;;
3343;SDS011;1685;53.104;8.228;2023-06-26T15:02:17;4.80;;;1.80;;
3343;SDS011;1685;53.104;8.228;2023-06-26T15:04:44;5.40;;;2.17;;
3343;SDS011;1685;53.104;8.228;2023-06-26T15:07:12;2.17;;;1.60;;
3343;SDS011;1685;53.104;8.228;2023-06-26T15:09:39;3.97;;;1.73;;